sensor_id;sensor_type;location;lat;lon;timestamp;pressure;altitude;pressure_sealevel;temperature;humidity
43450;BME280;29041;42.266;23.110;2023-02-19T00:00:38;96237.97;;;3.08;81.31
43450;BME280;29041;42.266;23.110;2023-02-19T00:03:25;96244.88;;;3.14;81.43
43450;BME280;29041;42.266;23.110;2023-02-19T00:06:17;96252.56;;;3.11;81.89
43450;BME280;29041;42.266;23.110;2023-02-19T00:09:16;96240.81;;;2.91;82.60
43450;BME280;29041;42.266;23.110;2023-02-19T00:12:03;96255.44;;;3.04;82.10
43450;BME280;29041;42.266;23.110;2023-02-19T00:14:52;96256.19;;;2.84;82.74
43450;BME280;29041;42.266;23.110;2023-02-19T00:17:44;96249.03;;;2.90;82.74
43450;BME280;29041;42.266;23.110;2023-02-19T00:20:32;96245.50;;;2.63;83.65
43450;BME280;29041;42.266;23.110;2023-02-19T00:23:21;96238.63;;;2.67;84.89
43450;BME280;29041;42.266;23.110;2023-02-19T00:26:11;96224.72;;;3.13;79.99
43450;BME280;29041;42.266;23.110;2023-02-19T00:29:01;96232.84;;;2.86;82.42
43450;BME280;29041;42.266;23.110;2023-02-19T00:31:48;96228.28;;;2.66;83.86
43450;BME280;29041;42.266;23.110;2023-02-19T00:34:40;96229.16;;;2.87;83.97
43450;BME280;29041;42.266;23.110;2023-02-19T00:37:27;96220.06;;;2.67;84.05
43450;BME280;29041;42.266;23.110;2023-02-19T00:40:14;96226.94;;;2.58;84.78
43450;BME280;29041;42.266;23.110;2023-02-19T00:43:01;96224.19;;;3.32;81.40
43450;BME280;29041;42.266;23.110;2023-02-19T00:45:48;96207.31;;;2.64;82.89
43450;BME280;29041;42.266;23.110;2023-02-19T00:48:35;96213.31;;;2.39;85.11
43450;BME280;29041;42.266;23.110;2023-02-19T00:51:33;96218.34;;;2.35;84.80
43450;BME280;29041;42.266;23.110;2023-02-19T00:54:21;96207.16;;;2.23;85.77
43450;BME280;29041;42.266;23.110;2023-02-19T00:57:08;96205.00;;;2.15;87.42
43450;BME280;29041;42.266;23.110;2023-02-19T00:59:55;96186.94;;;2.06;87.11
43450;BME280;29041;42.266;23.110;2023-02-19T01:02:42;96181.66;;;2.12;87.06
43450;BME280;29041;42.266;23.110;2023-02-19T01:05:30;96190.72;;;2.21;86.02
43450;BME280;29041;42.266;23.110;2023-02-19T01:08:18;96193.78;;;2.02;86.12
43450;BME280;29041;42.266;23.110;2023-02-19T01:11:07;96202.41;;;1.82;86.68
43450;BME280;29041;42.266;23.110;2023-02-19T01:13:56;96187.88;;;1.90;85.83
43450;BME280;29041;42.266;23.110;2023-02-19T01:16:43;96176.53;;;1.95;85.54
43450;BME280;29041;42.266;23.110;2023-02-19T01:19:31;96186.56;;;1.93;87.47
43450;BME280;29041;42.266;23.110;2023-02-19T01:22:18;96183.00;;;1.71;87.83
43450;BME280;29041;42.266;23.110;2023-02-19T01:25:07;96197.38;;;2.29;86.38
43450;BME280;29041;42.266;23.110;2023-02-19T01:27:54;96188.97;;;1.94;87.02
43450;BME280;29041;42.266;23.110;2023-02-19T01:30:41;96197.88;;;1.78;87.33
43450;BME280;29041;42.266;23.110;2023-02-19T01:33:28;96198.94;;;2.19;87.24
43450;BME280;29041;42.266;23.110;2023-02-19T01:36:17;96197.78;;;2.63;85.95
43450;BME280;29041;42.266;23.110;2023-02-19T01:39:09;96187.44;;;2.67;84.00
43450;BME280;29041;42.266;23.110;2023-02-19T01:41:59;96186.88;;;2.49;82.92
43450;BME280;29041;42.266;23.110;2023-02-19T01:48:07;96201.06;;;3.07;81.19
43450;BME280;29041;42.266;23.110;2023-02-19T01:50:58;96197.38;;;3.13;79.29
43450;BME280;29041;42.266;23.110;2023-02-19T01:53:54;96190.25;;;2.40;83.96
43450;BME280;29041;42.266;23.110;2023-02-19T01:56:44;96184.31;;;2.12;85.72
43450;BME280;29041;42.266;23.110;2023-02-19T01:59:34;96184.84;;;2.14;87.10
43450;BME280;29041;42.266;23.110;2023-02-19T02:02:21;96196.28;;;2.25;86.43
43450;BME280;29041;42.266;23.110;2023-02-19T02:05:22;96202.94;;;2.27;86.68
43450;BME280;29041;42.266;23.110;2023-02-19T02:08:11;96196.88;;;2.42;85.41
43450;BME280;29041;42.266;23.110;2023-02-19T02:11:16;96214.09;;;2.34;84.93
43450;BME280;29041;42.266;23.110;2023-02-19T02:14:04;96204.56;;;2.38;86.34
43450;BME280;29041;42.266;23.110;2023-02-19T02:16:59;96199.66;;;2.10;86.67
43450;BME280;29041;42.266;23.110;2023-02-19T02:20:11;96201.44;;;1.99;87.16
43450;BME280;29041;42.266;23.110;2023-02-19T02:23:07;96215.69;;;2.35;84.85
43450;BME280;29041;42.266;23.110;2023-02-19T02:26:09;96216.00;;;1.96;87.81
43450;BME280;29041;42.266;23.110;2023-02-19T02:29:20;96224.50;;;2.03;87.13
43450;BME280;29041;42.266;23.110;2023-02-19T02:32:20;96231.88;;;1.96;87.94
43450;BME280;29041;42.266;23.110;2023-02-19T02:35:12;96219.88;;;1.83;87.94
43450;BME280;29041;42.266;23.110;2023-02-19T02:38:06;96222.59;;;1.94;87.81
43450;BME280;29041;42.266;23.110;2023-02-19T02:40:55;96220.72;;;1.89;88.23
43450;BME280;29041;42.266;23.110;2023-02-19T02:43:43;96219.88;;;2.26;86.90
43450;BME280;29041;42.266;23.110;2023-02-19T02:46:34;96222.53;;;2.26;85.04
43450;BME280;29041;42.266;23.110;2023-02-19T02:49:27;96216.63;;;1.76;88.53
43450;BME280;29041;42.266;23.110;2023-02-19T02:52:15;96227.19;;;2.09;86.37
43450;BME280;29041;42.266;23.110;2023-02-19T02:55:23;96208.19;;;1.74;87.68
43450;BME280;29041;42.266;23.110;2023-02-19T02:58:11;96209.13;;;1.63;89.26
43450;BME280;29041;42.266;23.110;2023-02-19T03:01:02;96220.88;;;1.72;89.05
43450;BME280;29041;42.266;23.110;2023-02-19T03:04:11;96228.19;;;1.97;88.12
43450;BME280;29041;42.266;23.110;2023-02-19T03:07:04;96222.50;;;1.78;88.94
43450;BME280;29041;42.266;23.110;2023-02-19T03:09:55;96228.19;;;2.45;85.85
43450;BME280;29041;42.266;23.110;2023-02-19T03:12:44;96223.97;;;1.64;88.78
43450;BME280;29041;42.266;23.110;2023-02-19T03:16:00;96225.41;;;2.19;87.51
43450;BME280;29041;42.266;23.110;2023-02-19T03:19:03;96229.84;;;1.71;88.39
43450;BME280;29041;42.266;23.110;2023-02-19T03:22:13;96233.72;;;1.58;89.45
43450;BME280;29041;42.266;23.110;2023-02-19T03:25:04;96235.59;;;1.63;88.94
43450;BME280;29041;42.266;23.110;2023-02-19T03:28:12;96248.00;;;1.57;88.71
43450;BME280;29041;42.266;23.110;2023-02-19T03:31:02;96248.78;;;1.25;89.97
43450;BME280;29041;42.266;23.110;2023-02-19T03:33:56;96250.72;;;1.35;90.50
43450;BME280;29041;42.266;23.110;2023-02-19T03:36:51;96251.28;;;1.09;91.47
43450;BME280;29041;42.266;23.110;2023-02-19T03:39:44;96246.66;;;1.27;90.58
43450;BME280;29041;42.266;23.110;2023-02-19T03:42:39;96264.28;;;1.16;91.32
43450;BME280;29041;42.266;23.110;2023-02-19T03:45:33;96258.06;;;1.27;91.02
43450;BME280;29041;42.266;23.110;2023-02-19T03:48:29;96252.66;;;1.17;91.89
43450;BME280;29041;42.266;23.110;2023-02-19T03:51:26;96252.91;;;1.43;91.52
43450;BME280;29041;42.266;23.110;2023-02-19T03:54:19;96256.47;;;1.26;90.70
43450;BME280;29041;42.266;23.110;2023-02-19T03:57:14;96267.22;;;1.20;91.12
43450;BME280;29041;42.266;23.110;2023-02-19T04:00:08;96256.28;;;1.33;89.27
43450;BME280;29041;42.266;23.110;2023-02-19T04:02:59;96263.16;;;1.07;90.98
43450;BME280;29041;42.266;23.110;2023-02-19T04:05:51;96262.66;;;0.88;92.51
43450;BME280;29041;42.266;23.110;2023-02-19T04:08:43;96270.00;;;0.81;93.22
43450;BME280;29041;42.266;23.110;2023-02-19T04:11:32;96272.75;;;0.69;94.47
43450;BME280;29041;42.266;23.110;2023-02-19T04:14:24;96266.03;;;0.61;94.06
43450;BME280;29041;42.266;23.110;2023-02-19T04:17:16;96271.94;;;0.68;93.40
43450;BME280;29041;42.266;23.110;2023-02-19T04:20:07;96268.25;;;0.69;93.66
43450;BME280;29041;42.266;23.110;2023-02-19T04:22:55;96265.50;;;0.59;94.88
43450;BME280;29041;42.266;23.110;2023-02-19T04:25:45;96271.31;;;0.61;94.39
43450;BME280;29041;42.266;23.110;2023-02-19T04:28:34;96268.69;;;0.61;94.52
43450;BME280;29041;42.266;23.110;2023-02-19T04:31:25;96269.59;;;0.94;93.63
43450;BME280;29041;42.266;23.110;2023-02-19T04:34:14;96271.59;;;0.82;93.89
43450;BME280;29041;42.266;23.110;2023-02-19T04:37:01;96279.69;;;0.97;91.93
43450;BME280;29041;42.266;23.110;2023-02-19T04:39:48;96283.31;;;0.69;94.29
43450;BME280;29041;42.266;23.110;2023-02-19T04:42:37;96273.41;;;1.03;94.44
43450;BME280;29041;42.266;23.110;2023-02-19T04:45:24;96281.44;;;1.68;90.47
43450;BME280;29041;42.266;23.110;2023-02-19T04:48:13;96275.91;;;1.70;87.84
43450;BME280;29041;42.266;23.110;2023-02-19T04:51:04;96289.22;;;0.98;92.01
43450;BME280;29041;42.266;23.110;2023-02-19T04:53:51;96276.78;;;0.76;93.37
43450;BME280;29041;42.266;23.110;2023-02-19T04:56:41;96272.94;;;0.62;95.47
43450;BME280;29041;42.266;23.110;2023-02-19T04:59:28;96275.50;;;0.57;96.02
43450;BME280;29041;42.266;23.110;2023-02-19T05:02:15;96279.97;;;0.56;96.68
43450;BME280;29041;42.266;23.110;2023-02-19T05:05:04;96283.88;;;0.71;96.40
43450;BME280;29041;42.266;23.110;2023-02-19T05:07:51;96272.94;;;0.62;96.46
43450;BME280;29041;42.266;23.110;2023-02-19T05:10:38;96287.16;;;0.78;94.99
43450;BME280;29041;42.266;23.110;2023-02-19T05:13:28;96283.63;;;0.72;96.05
43450;BME280;29041;42.266;23.110;2023-02-19T05:16:16;96282.53;;;0.90;95.18
43450;BME280;29041;42.266;23.110;2023-02-19T05:19:04;96278.53;;;0.66;95.48
43450;BME280;29041;42.266;23.110;2023-02-19T05:21:52;96293.47;;;0.77;95.86
43450;BME280;29041;42.266;23.110;2023-02-19T05:24:39;96292.66;;;0.54;96.71
43450;BME280;29041;42.266;23.110;2023-02-19T05:27:29;96292.47;;;0.61;96.65
43450;BME280;29041;42.266;23.110;2023-02-19T05:30:16;96299.34;;;0.62;95.81
43450;BME280;29041;42.266;23.110;2023-02-19T05:33:03;96307.22;;;0.57;96.10
43450;BME280;29041;42.266;23.110;2023-02-19T05:35:52;96310.47;;;0.64;96.28
43450;BME280;29041;42.266;23.110;2023-02-19T05:38:41;96307.53;;;0.60;95.86
43450;BME280;29041;42.266;23.110;2023-02-19T05:41:29;96315.94;;;0.57;95.87
43450;BME280;29041;42.266;23.110;2023-02-19T05:44:16;96329.00;;;0.86;94.60
43450;BME280;29041;42.266;23.110;2023-02-19T05:47:03;96326.84;;;0.83;94.76
43450;BME280;29041;42.266;23.110;2023-02-19T05:49:50;96317.06;;;0.84;93.59
43450;BME280;29041;42.266;23.110;2023-02-19T05:52:37;96331.78;;;1.19;91.98
43450;BME280;29041;42.266;23.110;2023-02-19T05:55:26;96324.81;;;1.13;91.54
43450;BME280;29041;42.266;23.110;2023-02-19T05:58:13;96332.38;;;1.26;92.15
43450;BME280;29041;42.266;23.110;2023-02-19T06:01:00;96326.63;;;1.89;88.82
43450;BME280;29041;42.266;23.110;2023-02-19T06:03:47;96336.41;;;1.56;89.37
43450;BME280;29041;42.266;23.110;2023-02-19T06:06:34;96344.41;;;1.94;87.24
43450;BME280;29041;42.266;23.110;2023-02-19T06:09:26;96348.91;;;2.26;86.25
43450;BME280;29041;42.266;23.110;2023-02-19T06:12:15;96349.63;;;2.16;85.01
43450;BME280;29041;42.266;23.110;2023-02-19T06:15:03;96344.25;;;2.05;85.96
43450;BME280;29041;42.266;23.110;2023-02-19T06:17:52;96362.91;;;1.88;84.95
43450;BME280;29041;42.266;23.110;2023-02-19T06:20:39;96358.34;;;2.11;85.53
43450;BME280;29041;42.266;23.110;2023-02-19T06:23:26;96353.63;;;2.18;82.91
43450;BME280;29041;42.266;23.110;2023-02-19T06:26:16;96358.97;;;2.24;82.73
43450;BME280;29041;42.266;23.110;2023-02-19T06:29:05;96359.09;;;2.87;79.52
43450;BME280;29041;42.266;23.110;2023-02-19T06:31:52;96370.94;;;2.69;79.32
43450;BME280;29041;42.266;23.110;2023-02-19T06:34:39;96357.78;;;2.90;78.44
43450;BME280;29041;42.266;23.110;2023-02-19T06:37:26;96371.91;;;3.85;73.35
43450;BME280;29041;42.266;23.110;2023-02-19T06:40:13;96367.59;;;3.63;75.59
43450;BME280;29041;42.266;23.110;2023-02-19T06:43:01;96364.47;;;5.45;66.68
43450;BME280;29041;42.266;23.110;2023-02-19T06:45:49;96368.53;;;5.87;64.75
43450;BME280;29041;42.266;23.110;2023-02-19T06:48:38;96368.66;;;6.76;62.13
43450;BME280;29041;42.266;23.110;2023-02-19T06:51:36;96383.19;;;6.64;61.05
43450;BME280;29041;42.266;23.110;2023-02-19T06:54:29;96370.94;;;7.99;57.23
43450;BME280;29041;42.266;23.110;2023-02-19T06:57:20;96345.34;;;9.47;50.89
43450;BME280;29041;42.266;23.110;2023-02-19T07:00:35;96319.72;;;9.55;50.58
43450;BME280;29041;42.266;23.110;2023-02-19T07:03:49;96346.16;;;10.98;46.52
43450;BME280;29041;42.266;23.110;2023-02-19T07:06:41;96307.16;;;12.76;43.53
43450;BME280;29041;42.266;23.110;2023-02-19T07:09:32;96348.03;;;12.78;42.74
43450;BME280;29041;42.266;23.110;2023-02-19T07:12:40;96305.34;;;12.33;42.18
43450;BME280;29041;42.266;23.110;2023-02-19T07:15:31;96295.56;;;13.95;39.40
43450;BME280;29041;42.266;23.110;2023-02-19T07:21:48;96320.47;;;13.11;41.46
43450;BME280;29041;42.266;23.110;2023-02-19T07:24:47;96347.63;;;13.06;42.45
43450;BME280;29041;42.266;23.110;2023-02-19T07:27:36;96314.44;;;12.67;42.43
43450;BME280;29041;42.266;23.110;2023-02-19T07:30:25;96343.94;;;12.72;43.21
43450;BME280;29041;42.266;23.110;2023-02-19T07:33:17;96349.47;;;14.59;39.44
43450;BME280;29041;42.266;23.110;2023-02-19T07:36:08;96289.16;;;14.67;38.39
43450;BME280;29041;42.266;23.110;2023-02-19T07:39:02;96294.13;;;15.52;36.94
43450;BME280;29041;42.266;23.110;2023-02-19T07:41:50;96293.31;;;15.64;36.22
43450;BME280;29041;42.266;23.110;2023-02-19T09:38:49;96191.31;;;15.52;35.84
43450;BME280;29041;42.266;23.110;2023-02-19T09:41:42;96183.13;;;16.53;35.21
43450;BME280;29041;42.266;23.110;2023-02-19T09:44:33;96175.59;;;16.94;33.95
43450;BME280;29041;42.266;23.110;2023-02-19T09:47:22;96160.00;;;17.07;32.59
43450;BME280;29041;42.266;23.110;2023-02-19T09:50:15;96174.06;;;17.13;32.09
43450;BME280;29041;42.266;23.110;2023-02-19T09:53:06;96156.03;;;16.53;33.75
43450;BME280;29041;42.266;23.110;2023-02-19T09:56:00;96151.34;;;17.02;33.26
43450;BME280;29041;42.266;23.110;2023-02-19T09:58:49;96133.03;;;17.15;33.18
43450;BME280;29041;42.266;23.110;2023-02-19T10:01:38;96126.97;;;16.70;34.45
43450;BME280;29041;42.266;23.110;2023-02-19T10:04:26;96112.06;;;17.31;34.40
43450;BME280;29041;42.266;23.110;2023-02-19T10:07:14;96113.25;;;16.62;33.70
43450;BME280;29041;42.266;23.110;2023-02-19T10:10:20;96113.47;;;16.22;34.22
43450;BME280;29041;42.266;23.110;2023-02-19T10:13:17;96107.25;;;17.44;33.20
43450;BME280;29041;42.266;23.110;2023-02-19T10:16:08;96102.09;;;18.75;31.05
43450;BME280;29041;42.266;23.110;2023-02-19T10:19:00;96082.19;;;18.17;31.14
43450;BME280;29041;42.266;23.110;2023-02-19T10:21:47;96092.81;;;17.79;32.57
43450;BME280;29041;42.266;23.110;2023-02-19T10:24:35;96069.13;;;17.56;32.34
43450;BME280;29041;42.266;23.110;2023-02-19T10:27:25;96081.94;;;16.81;34.16
43450;BME280;29041;42.266;23.110;2023-02-19T10:30:19;96077.69;;;16.64;34.48
43450;BME280;29041;42.266;23.110;2023-02-19T10:33:09;96068.38;;;18.52;32.00
43450;BME280;29041;42.266;23.110;2023-02-19T10:35:58;96052.25;;;18.40;32.05
43450;BME280;29041;42.266;23.110;2023-02-19T10:38:46;96053.81;;;18.14;32.00
43450;BME280;29041;42.266;23.110;2023-02-19T10:41:39;96044.97;;;18.44;31.21
43450;BME280;29041;42.266;23.110;2023-02-19T10:44:28;96031.44;;;18.78;31.37
43450;BME280;29041;42.266;23.110;2023-02-19T10:47:21;96015.56;;;20.42;28.05
43450;BME280;29041;42.266;23.110;2023-02-19T10:50:18;96023.22;;;19.77;30.21
43450;BME280;29041;42.266;23.110;2023-02-19T10:53:19;96007.25;;;19.75;28.68
43450;BME280;29041;42.266;23.110;2023-02-19T10:56:09;96012.34;;;19.39;29.78
43450;BME280;29041;42.266;23.110;2023-02-19T10:59:13;96006.81;;;19.73;30.32
43450;BME280;29041;42.266;23.110;2023-02-19T11:02:02;95999.06;;;19.75;28.66
43450;BME280;29041;42.266;23.110;2023-02-19T11:05:05;95989.75;;;19.76;29.31
43450;BME280;29041;42.266;23.110;2023-02-19T11:07:54;95979.03;;;20.54;28.00
43450;BME280;29041;42.266;23.110;2023-02-19T11:10:46;95976.69;;;19.93;29.14
43450;BME280;29041;42.266;23.110;2023-02-19T11:13:34;95964.09;;;21.25;27.30
43450;BME280;29041;42.266;23.110;2023-02-19T11:16:23;95954.22;;;20.77;26.90
43450;BME280;29041;42.266;23.110;2023-02-19T11:19:33;95950.75;;;20.87;27.09
43450;BME280;29041;42.266;23.110;2023-02-19T11:22:31;95944.59;;;21.23;26.81
43450;BME280;29041;42.266;23.110;2023-02-19T11:25:20;95929.00;;;22.17;24.95
43450;BME280;29041;42.266;23.110;2023-02-19T11:28:30;95930.94;;;21.34;25.85
43450;BME280;29041;42.266;23.110;2023-02-19T11:31:25;95917.03;;;20.47;27.19
43450;BME280;29041;42.266;23.110;2023-02-19T11:34:26;95905.09;;;20.73;26.55
43450;BME280;29041;42.266;23.110;2023-02-19T11:37:15;95907.09;;;20.06;27.80
43450;BME280;29041;42.266;23.110;2023-02-19T11:40:07;95904.28;;;19.95;28.03
43450;BME280;29041;42.266;23.110;2023-02-19T11:43:03;95901.75;;;21.78;25.15
43450;BME280;29041;42.266;23.110;2023-02-19T11:46:00;95898.13;;;20.90;26.19
43450;BME280;29041;42.266;23.110;2023-02-19T11:48:52;95890.00;;;21.99;24.57
43450;BME280;29041;42.266;23.110;2023-02-19T11:51:51;95890.78;;;21.34;25.46
43450;BME280;29041;42.266;23.110;2023-02-19T11:54:48;95890.41;;;21.39;25.92
43450;BME280;29041;42.266;23.110;2023-02-19T11:57:43;95877.94;;;21.60;25.68
43450;BME280;29041;42.266;23.110;2023-02-19T12:00:38;95879.72;;;22.46;24.67
43450;BME280;29041;42.266;23.110;2023-02-19T12:03:40;95864.69;;;21.59;25.44
43450;BME280;29041;42.266;23.110;2023-02-19T12:06:35;95866.81;;;22.54;25.07
43450;BME280;29041;42.266;23.110;2023-02-19T12:09:35;95849.44;;;21.43;25.64
43450;BME280;29041;42.266;23.110;2023-02-19T12:12:49;95853.66;;;22.02;25.16
43450;BME280;29041;42.266;23.110;2023-02-19T12:15:50;95860.72;;;21.02;25.76
43450;BME280;29041;42.266;23.110;2023-02-19T12:19:00;95853.72;;;21.26;25.72
43450;BME280;29041;42.266;23.110;2023-02-19T12:22:15;95847.84;;;21.78;26.56
43450;BME280;29041;42.266;23.110;2023-02-19T12:25:17;95833.44;;;21.20;26.28
43450;BME280;29041;42.266;23.110;2023-02-19T12:28:30;95822.81;;;22.90;25.26
43450;BME280;29041;42.266;23.110;2023-02-19T12:31:38;95813.56;;;21.52;25.47
43450;BME280;29041;42.266;23.110;2023-02-19T12:38:00;95806.66;;;22.47;24.09
43450;BME280;29041;42.266;23.110;2023-02-19T12:41:08;95796.28;;;21.95;24.70
43450;BME280;29041;42.266;23.110;2023-02-19T12:44:03;95792.44;;;22.74;23.75
43450;BME280;29041;42.266;23.110;2023-02-19T12:46:53;95779.09;;;22.01;24.33
43450;BME280;29041;42.266;23.110;2023-02-19T12:49:46;95772.38;;;22.91;23.79
43450;BME280;29041;42.266;23.110;2023-02-19T12:52:35;95769.25;;;22.89;24.09
43450;BME280;29041;42.266;23.110;2023-02-19T12:55:28;95759.81;;;23.47;23.27
43450;BME280;29041;42.266;23.110;2023-02-19T12:58:27;95756.09;;;23.26;23.90
43450;BME280;29041;42.266;23.110;2023-02-19T13:01:22;95751.41;;;24.34;22.34
43450;BME280;29041;42.266;23.110;2023-02-19T13:04:21;95744.53;;;23.49;22.42
43450;BME280;29041;42.266;23.110;2023-02-19T13:07:12;95730.47;;;23.82;22.92
43450;BME280;29041;42.266;23.110;2023-02-19T13:10:21;95737.66;;;22.81;23.72
43450;BME280;29041;42.266;23.110;2023-02-19T13:13:14;95724.53;;;21.80;25.10
43450;BME280;29041;42.266;23.110;2023-02-19T13:16:06;95723.09;;;21.21;25.26
43450;BME280;29041;42.266;23.110;2023-02-19T13:19:03;95725.53;;;22.15;25.05
43450;BME280;29041;42.266;23.110;2023-02-19T13:21:57;95716.94;;;22.13;23.97
43450;BME280;29041;42.266;23.110;2023-02-19T13:25:06;95719.50;;;22.49;23.74
43450;BME280;29041;42.266;23.110;2023-02-19T13:28:12;95705.09;;;22.45;23.60
43450;BME280;29041;42.266;23.110;2023-02-19T13:31:19;95707.50;;;22.25;23.04
43450;BME280;29041;42.266;23.110;2023-02-19T13:34:21;95699.25;;;21.32;24.82
43450;BME280;29041;42.266;23.110;2023-02-19T13:37:15;95691.41;;;21.56;24.75
43450;BME280;29041;42.266;23.110;2023-02-19T13:40:05;95684.50;;;21.12;25.62
43450;BME280;29041;42.266;23.110;2023-02-19T13:43:05;95678.25;;;20.64;25.97
43450;BME280;29041;42.266;23.110;2023-02-19T13:45:56;95686.09;;;20.73;25.44
43450;BME280;29041;42.266;23.110;2023-02-19T13:48:43;95690.72;;;20.54;25.73
43450;BME280;29041;42.266;23.110;2023-02-19T13:51:46;95678.28;;;20.79;25.96
43450;BME280;29041;42.266;23.110;2023-02-19T13:54:35;95684.50;;;21.08;25.66
43450;BME280;29041;42.266;23.110;2023-02-19T13:57:27;95681.78;;;20.43;25.73
43450;BME280;29041;42.266;23.110;2023-02-19T14:00:45;95673.91;;;20.09;26.12
43450;BME280;29041;42.266;23.110;2023-02-19T14:03:45;95668.31;;;19.69;26.68
43450;BME280;29041;42.266;23.110;2023-02-19T14:10:12;95675.50;;;20.21;26.02
43450;BME280;29041;42.266;23.110;2023-02-19T14:13:00;95661.56;;;19.34;27.02
43450;BME280;29041;42.266;23.110;2023-02-19T14:15:48;95669.50;;;19.72;27.13
43450;BME280;29041;42.266;23.110;2023-02-19T14:18:43;95661.09;;;20.13;27.12
43450;BME280;29041;42.266;23.110;2023-02-19T14:21:35;95658.75;;;20.29;26.60
43450;BME280;29041;42.266;23.110;2023-02-19T14:24:22;95653.66;;;20.06;26.76
43450;BME280;29041;42.266;23.110;2023-02-19T14:27:11;95663.31;;;19.78;27.13
43450;BME280;29041;42.266;23.110;2023-02-19T14:29:59;95658.53;;;19.54;26.94
43450;BME280;29041;42.266;23.110;2023-02-19T14:32:47;95659.44;;;19.83;27.01
43450;BME280;29041;42.266;23.110;2023-02-19T14:35:37;95658.63;;;19.82;27.21
43450;BME280;29041;42.266;23.110;2023-02-19T14:38:27;95651.34;;;20.01;27.19
43450;BME280;29041;42.266;23.110;2023-02-19T14:41:16;95641.59;;;19.96;27.81
43450;BME280;29041;42.266;23.110;2023-02-19T14:44:06;95655.25;;;19.15;28.49
43450;BME280;29041;42.266;23.110;2023-02-19T14:47:03;95654.31;;;19.67;27.60
43450;BME280;29041;42.266;23.110;2023-02-19T14:49:52;95645.38;;;19.74;27.69
43450;BME280;29041;42.266;23.110;2023-02-19T14:52:43;95651.66;;;19.89;27.93
43450;BME280;29041;42.266;23.110;2023-02-19T14:55:33;95654.50;;;19.22;28.06
43450;BME280;29041;42.266;23.110;2023-02-19T14:58:23;95639.09;;;18.85;29.09
43450;BME280;29041;42.266;23.110;2023-02-19T15:01:25;95635.34;;;18.52;29.14
43450;BME280;29041;42.266;23.110;2023-02-19T15:04:20;95639.41;;;18.73;29.26
43450;BME280;29041;42.266;23.110;2023-02-19T15:07:10;95628.59;;;18.80;29.00
43450;BME280;29041;42.266;23.110;2023-02-19T15:10:02;95642.69;;;18.96;28.90
43450;BME280;29041;42.266;23.110;2023-02-19T15:12:51;95641.38;;;18.79;29.47
43450;BME280;29041;42.266;23.110;2023-02-19T15:15:43;95629.94;;;18.52;29.24
43450;BME280;29041;42.266;23.110;2023-02-19T15:18:32;95641.78;;;18.29;29.43
43450;BME280;29041;42.266;23.110;2023-02-19T15:21:24;95637.22;;;17.99;30.46
43450;BME280;29041;42.266;23.110;2023-02-19T15:24:13;95640.34;;;18.01;29.71
43450;BME280;29041;42.266;23.110;2023-02-19T15:27:02;95640.88;;;17.80;30.15
43450;BME280;29041;42.266;23.110;2023-02-19T15:29:50;95637.78;;;17.78;29.42
43450;BME280;29041;42.266;23.110;2023-02-19T15:32:38;95640.47;;;17.74;29.38
43450;BME280;29041;42.266;23.110;2023-02-19T15:35:27;95652.81;;;18.06;29.18
43450;BME280;29041;42.266;23.110;2023-02-19T15:38:18;95652.09;;;18.09;28.89
43450;BME280;29041;42.266;23.110;2023-02-19T15:41:05;95651.25;;;17.67;28.49
43450;BME280;29041;42.266;23.110;2023-02-19T15:43:55;95649.28;;;17.68;28.71
43450;BME280;29041;42.266;23.110;2023-02-19T15:46:45;95667.75;;;17.24;29.22
43450;BME280;29041;42.266;23.110;2023-02-19T15:49:39;95654.88;;;17.48;28.93
43450;BME280;29041;42.266;23.110;2023-02-19T15:52:37;95667.53;;;17.37;29.21
43450;BME280;29041;42.266;23.110;2023-02-19T15:55:31;95656.03;;;16.90;30.52
43450;BME280;29041;42.266;23.110;2023-02-19T15:58:25;95659.66;;;16.74;30.01
43450;BME280;29041;42.266;23.110;2023-02-19T16:01:20;95676.84;;;17.39;30.25
43450;BME280;29041;42.266;23.110;2023-02-19T16:04:12;95687.66;;;17.36;30.57
43450;BME280;29041;42.266;23.110;2023-02-19T16:07:01;95691.22;;;16.86;30.22
43450;BME280;29041;42.266;23.110;2023-02-19T16:10:04;95695.44;;;16.84;30.43
43450;BME280;29041;42.266;23.110;2023-02-19T16:12:56;95699.38;;;16.40;30.89
43450;BME280;29041;42.266;23.110;2023-02-19T16:15:56;95697.91;;;16.46;31.50
43450;BME280;29041;42.266;23.110;2023-02-19T16:18:45;95703.66;;;16.41;31.68
43450;BME280;29041;42.266;23.110;2023-02-19T16:21:33;95695.47;;;16.37;31.20
43450;BME280;29041;42.266;23.110;2023-02-19T16:24:26;95710.88;;;16.33;30.89
43450;BME280;29041;42.266;23.110;2023-02-19T16:27:27;95721.47;;;16.42;30.74
43450;BME280;29041;42.266;23.110;2023-02-19T16:30:25;95726.53;;;16.00;32.34
43450;BME280;29041;42.266;23.110;2023-02-19T16:33:33;95727.94;;;15.94;32.42
43450;BME280;29041;42.266;23.110;2023-02-19T16:36:34;95727.41;;;15.85;33.49
43450;BME280;29041;42.266;23.110;2023-02-19T16:39:22;95735.41;;;15.62;33.31
43450;BME280;29041;42.266;23.110;2023-02-19T16:42:12;95739.16;;;15.57;34.16
43450;BME280;29041;42.266;23.110;2023-02-19T16:45:01;95732.25;;;15.40;33.85
43450;BME280;29041;42.266;23.110;2023-02-19T16:47:48;95737.31;;;15.06;34.24
43450;BME280;29041;42.266;23.110;2023-02-19T16:50:37;95749.44;;;14.80;35.30
43450;BME280;29041;42.266;23.110;2023-02-19T16:53:26;95771.50;;;15.14;36.25
43450;BME280;29041;42.266;23.110;2023-02-19T16:56:15;95753.41;;;15.54;34.97
43450;BME280;29041;42.266;23.110;2023-02-19T16:59:05;95742.28;;;15.95;33.61
43450;BME280;29041;42.266;23.110;2023-02-19T17:01:54;95742.19;;;15.00;34.35
43450;BME280;29041;42.266;23.110;2023-02-19T17:07:17;95741.56;;;15.07;34.89
43450;BME280;29041;42.266;23.110;2023-02-19T17:10:23;95738.94;;;14.47;35.64
43450;BME280;29041;42.266;23.110;2023-02-19T17:16:55;95697.38;;;14.67;35.84
43450;BME280;29041;42.266;23.110;2023-02-19T17:19:42;95725.75;;;15.25;34.02
43450;BME280;29041;42.266;23.110;2023-02-19T17:22:29;95723.25;;;14.36;35.70